Time;durP1;ratioP1;P1;durP2;ratioP2;P2;SDS_P1;SDS_P2;PMS_P1;PMS_P2;Temp;Humidity;BMP_temperature;BMP_pressure;BME280_temperature;BME280_humidity;BME280_pressure;Samples;Min_cycle;Max_cycle;Signal;HPM_P1;HPM_P2
2021/04/07 00:00:18;;;;;;;5.30;3.23;;;;;;;;;;5089926;28;20421;-61
2021/04/07 00:02:45;;;;;;;7.27;3.70;;;;;;;;;;5078676;28;20434;-64
2021/04/07 00:05:15;;;;;;;4.50;3.63;;;;;;;;;;5067521;28;20939;-61
2021/04/07 00:07:48;;;;;;;6.97;3.73;;;;;;;;;;5069212;28;20771;-61
2021/04/07 00:10:15;;;;;;;4.10;2.80;;;;;;;;;;5068320;28;20479;-61
2021/04/07 00:12:41;;;;;;;5.33;3.03;;;;;;;;;;5056538;28;20418;-62
2021/04/07 00:15:18;;;;;;;4.20;2.57;;;;;;;;;;5077444;28;20403;-61
2021/04/07 00:17:44;;;;;;;6.43;2.70;;;;;;;;;;5087974;28;20429;-61
2021/04/07 00:20:11;;;;;;;4.53;2.57;;;;;;;;;;5068910;28;20428;-62
2021/04/07 00:22:37;;;;;;;5.03;2.87;;;;;;;;;;5071580;28;20419;-61
2021/04/07 00:25:04;;;;;;;4.27;2.20;;;;;;;;;;5102673;28;20963;-61
2021/04/07 00:27:31;;;;;;;3.27;2.20;;;;;;;;;;5086798;28;20536;-63
2021/04/07 00:29:57;;;;;;;4.07;2.00;;;;;;;;;;5070864;28;20465;-61
2021/04/07 00:32:23;;;;;;;5.17;2.13;;;;;;;;;;5089732;28;20426;-61
2021/04/07 00:34:49;;;;;;;6.30;2.20;;;;;;;;;;5082484;28;20768;-60
2021/04/07 00:37:15;;;;;;;4.10;2.20;;;;;;;;;;5081935;28;20501;-61
2021/04/07 00:39:42;;;;;;;2.30;2.07;;;;;;;;;;5082025;28;20497;-62
2021/04/07 00:42:08;;;;;;;5.57;2.80;;;;;;;;;;5078701;28;20468;-61
2021/04/07 00:44:34;;;;;;;5.90;2.37;;;;;;;;;;5087705;28;20471;-60
2021/04/07 00:47:00;;;;;;;6.50;3.30;;;;;;;;;;5069407;28;20912;-62
2021/04/07 00:49:27;;;;;;;5.97;3.53;;;;;;;;;;5071152;28;20475;-60
2021/04/07 00:51:53;;;;;;;4.53;2.90;;;;;;;;;;5092509;28;20466;-61
2021/04/07 00:54:20;;;;;;;6.07;2.97;;;;;;;;;;5067116;28;20738;-61
2021/04/07 00:56:46;;;;;;;4.63;2.93;;;;;;;;;;5092422;28;20425;-61
2021/04/07 00:59:16;;;;;;;4.30;3.10;;;;;;;;;;5075406;28;20912;-61
2021/04/07 01:01:42;;;;;;;3.60;2.80;;;;;;;;;;5090975;28;20410;-60
2021/04/07 01:04:09;;;;;;;5.13;3.50;;;;;;;;;;5091846;28;20429;-60
2021/04/07 01:06:36;;;;;;;4.90;2.70;;;;;;;;;;5082187;28;20910;-63
2021/04/07 01:09:03;;;;;;;4.53;3.20;;;;;;;;;;5086074;28;20453;-61
2021/04/07 01:11:29;;;;;;;5.03;3.10;;;;;;;;;;5086351;28;20479;-61
2021/04/07 01:13:55;;;;;;;5.23;3.00;;;;;;;;;;5085344;28;20429;-61
2021/04/07 01:16:22;;;;;;;4.33;2.67;;;;;;;;;;5084032;28;20474;-61
2021/04/07 01:18:49;;;;;;;7.30;3.60;;;;;;;;;;5087714;28;20441;-60
2021/04/07 01:21:15;;;;;;;7.53;3.07;;;;;;;;;;5093910;28;20413;-60
2021/04/07 01:23:48;;;;;;;5.33;3.20;;;;;;;;;;5092743;28;20429;-62
2021/04/07 01:26:14;;;;;;;3.67;2.90;;;;;;;;;;5092447;28;20417;-60
2021/04/07 01:28:41;;;;;;;4.83;2.70;;;;;;;;;;5087742;28;21543;-60
2021/04/07 01:31:07;;;;;;;4.50;2.73;;;;;;;;;;5093789;28;20733;-60
2021/04/07 01:33:33;;;;;;;4.33;2.77;;;;;;;;;;5076252;28;20426;-61
2021/04/07 01:35:59;;;;;;;2.80;2.10;;;;;;;;;;5090792;28;22078;-60
2021/04/07 01:38:26;;;;;;;4.27;2.80;;;;;;;;;;5061677;28;20422;-60
2021/04/07 01:40:52;;;;;;;3.03;2.07;;;;;;;;;;5069840;28;20524;-60
2021/04/07 01:43:19;;;;;;;4.40;2.57;;;;;;;;;;5086759;28;20958;-60
2021/04/07 01:45:48;;;;;;;3.43;2.40;;;;;;;;;;5090205;28;20418;-60
2021/04/07 01:48:16;;;;;;;5.17;3.13;;;;;;;;;;5084896;28;20976;-63
2021/04/07 01:50:42;;;;;;;4.30;2.97;;;;;;;;;;5073302;28;20474;-60
2021/04/07 01:53:12;;;;;;;5.53;2.90;;;;;;;;;;5079858;28;20445;-60
2021/04/07 01:55:38;;;;;;;4.60;3.73;;;;;;;;;;5092584;28;20915;-60
2021/04/07 01:58:05;;;;;;;6.97;4.13;;;;;;;;;;5079862;28;20934;-59
2021/04/07 02:00:31;;;;;;;6.93;3.90;;;;;;;;;;5062078;28;20533;-60
2021/04/07 02:02:57;;;;;;;6.87;3.77;;;;;;;;;;5072813;28;20201;-60
2021/04/07 02:05:23;;;;;;;6.50;3.77;;;;;;;;;;5081170;28;20426;-60
2021/04/07 02:07:49;;;;;;;7.63;3.90;;;;;;;;;;5078091;28;20414;-60
2021/04/07 02:10:15;;;;;;;7.53;3.87;;;;;;;;;;5073809;28;20940;-60
2021/04/07 02:12:41;;;;;;;6.53;4.40;;;;;;;;;;5091478;28;20237;-62
2021/04/07 02:15:09;;;;;;;8.47;3.67;;;;;;;;;;5078179;28;20816;-59
2021/04/07 02:17:35;;;;;;;7.13;4.00;;;;;;;;;;5072609;28;20450;-60
2021/04/07 02:20:01;;;;;;;5.47;4.03;;;;;;;;;;5071562;28;20422;-62
2021/04/07 02:22:27;;;;;;;7.90;3.50;;;;;;;;;;5093013;28;20463;-60
2021/04/07 02:24:53;;;;;;;9.07;4.23;;;;;;;;;;5083009;28;20421;-60
2021/04/07 02:27:20;;;;;;;6.10;3.43;;;;;;;;;;5072245;28;20422;-61
2021/04/07 02:29:48;;;;;;;7.10;3.80;;;;;;;;;;5091474;28;20996;-60
2021/04/07 02:32:14;;;;;;;8.77;3.63;;;;;;;;;;5093060;28;20512;-60
2021/04/07 02:34:42;;;;;;;7.47;4.40;;;;;;;;;;5098867;28;20417;-60
2021/04/07 02:37:09;;;;;;;5.77;3.70;;;;;;;;;;5071407;28;20422;-60
2021/04/07 02:39:35;;;;;;;6.60;3.93;;;;;;;;;;5090277;28;20896;-60
2021/04/07 02:42:01;;;;;;;6.20;3.83;;;;;;;;;;5089117;28;20908;-60
2021/04/07 02:44:27;;;;;;;6.57;3.70;;;;;;;;;;5081336;28;20430;-60
2021/04/07 02:46:53;;;;;;;7.50;4.17;;;;;;;;;;5091943;28;20422;-59
2021/04/07 02:49:19;;;;;;;7.50;4.00;;;;;;;;;;5090828;28;20959;-59
2021/04/07 02:51:46;;;;;;;5.13;3.40;;;;;;;;;;5091810;28;20482;-60
2021/04/07 02:54:12;;;;;;;6.53;4.07;;;;;;;;;;5092250;28;20414;-60
2021/04/07 02:56:38;;;;;;;7.53;4.13;;;;;;;;;;5091223;28;20398;-60
2021/04/07 02:59:04;;;;;;;6.20;3.83;;;;;;;;;;5086487;28;20420;-60
2021/04/07 03:01:30;;;;;;;6.00;3.93;;;;;;;;;;5092245;28;20425;-60
2021/04/07 03:03:57;;;;;;;6.00;4.13;;;;;;;;;;5082042;28;20429;-63
2021/04/07 03:06:23;;;;;;;8.00;4.20;;;;;;;;;;5092035;28;20421;-60
2021/04/07 03:08:49;;;;;;;9.83;4.47;;;;;;;;;;5083131;28;20420;-60
2021/04/07 03:11:15;;;;;;;7.23;4.57;;;;;;;;;;5053518;28;20917;-60
2021/04/07 03:13:41;;;;;;;6.27;3.90;;;;;;;;;;5073439;28;20457;-60
2021/04/07 03:16:07;;;;;;;5.53;4.23;;;;;;;;;;5088322;28;20421;-60
2021/04/07 03:18:33;;;;;;;7.10;3.63;;;;;;;;;;5080734;28;20907;-60
2021/04/07 03:21:00;;;;;;;7.60;4.30;;;;;;;;;;5091864;28;20398;-60
2021/04/07 03:23:26;;;;;;;6.43;3.87;;;;;;;;;;5090517;28;20406;-60
2021/04/07 03:25:52;;;;;;;8.30;4.40;;;;;;;;;;5079971;28;20423;-60
2021/04/07 03:28:18;;;;;;;5.17;3.90;;;;;;;;;;5077300;28;20421;-60
2021/04/07 03:30:51;;;;;;;5.60;4.40;;;;;;;;;;5061885;28;20465;-60
2021/04/07 03:33:17;;;;;;;5.73;4.00;;;;;;;;;;5053452;28;20415;-62
2021/04/07 03:35:44;;;;;;;6.10;4.13;;;;;;;;;;5071356;28;20417;-60
2021/04/07 03:38:10;;;;;;;6.07;4.47;;;;;;;;;;5077712;28;20414;-60
2021/04/07 03:40:36;;;;;;;5.80;4.23;;;;;;;;;;5098590;28;20418;-60
2021/04/07 03:43:10;;;;;;;5.00;4.50;;;;;;;;;;5071512;28;20417;-63
2021/04/07 03:45:36;;;;;;;5.93;4.80;;;;;;;;;;5089826;28;20406;-60
2021/04/07 03:48:02;;;;;;;5.00;4.27;;;;;;;;;;5060323;28;20756;-60
2021/04/07 03:50:28;;;;;;;7.90;4.53;;;;;;;;;;5088755;28;20472;-60
2021/04/07 03:52:54;;;;;;;7.40;5.33;;;;;;;;;;5083014;28;20476;-61
2021/04/07 03:55:20;;;;;;;5.07;4.57;;;;;;;;;;5089311;28;20414;-60
2021/04/07 03:57:46;;;;;;;6.23;4.70;;;;;;;;;;5061884;28;20410;-60
2021/04/07 04:00:13;;;;;;;8.57;4.73;;;;;;;;;;5085625;28;20909;-61
2021/04/07 04:02:39;;;;;;;5.33;4.80;;;;;;;;;;5063613;28;20902;-60
2021/04/07 04:05:06;;;;;;;6.13;5.30;;;;;;;;;;5085080;28;20433;-60
2021/04/07 04:07:32;;;;;;;5.63;5.03;;;;;;;;;;5087945;28;20471;-60
2021/04/07 04:09:58;;;;;;;7.20;4.97;;;;;;;;;;5084008;28;20466;-60
2021/04/07 04:12:24;;;;;;;5.13;4.63;;;;;;;;;;5090622;28;20460;-60
2021/04/07 04:14:50;;;;;;;4.97;4.40;;;;;;;;;;5072021;28;20406;-60
2021/04/07 04:17:16;;;;;;;8.23;4.40;;;;;;;;;;5086099;28;20464;-60
2021/04/07 04:19:42;;;;;;;5.37;4.03;;;;;;;;;;5089606;28;20418;-60
2021/04/07 04:22:08;;;;;;;5.83;4.37;;;;;;;;;;5070413;28;20926;-62
2021/04/07 04:24:34;;;;;;;5.83;4.20;;;;;;;;;;5081185;28;20422;-60
2021/04/07 04:27:00;;;;;;;5.93;4.10;;;;;;;;;;5084044;28;20414;-60
2021/04/07 04:29:26;;;;;;;5.13;4.20;;;;;;;;;;5081824;28;20485;-60
2021/04/07 04:31:52;;;;;;;4.57;4.00;;;;;;;;;;5088539;28;20401;-60
2021/04/07 04:34:18;;;;;;;5.60;4.63;;;;;;;;;;5087945;28;20777;-61
2021/04/07 04:36:44;;;;;;;5.00;4.00;;;;;;;;;;5086995;28;20772;-61
2021/04/07 04:39:10;;;;;;;5.80;4.23;;;;;;;;;;5085323;28;20795;-60
2021/04/07 04:41:36;;;;;;;6.83;4.63;;;;;;;;;;5060574;28;20354;-60
2021/04/07 04:44:02;;;;;;;6.27;4.10;;;;;;;;;;5075113;28;20427;-60
2021/04/07 04:46:28;;;;;;;5.57;3.80;;;;;;;;;;5051795;28;20415;-61
2021/04/07 04:48:54;;;;;;;4.43;4.03;;;;;;;;;;5055793;28;20432;-60
2021/04/07 04:51:20;;;;;;;5.03;3.93;;;;;;;;;;5074131;28;20426;-60
2021/04/07 04:53:46;;;;;;;5.10;4.33;;;;;;;;;;5072045;28;20746;-61
2021/04/07 04:56:12;;;;;;;5.27;4.23;;;;;;;;;;5086241;28;20406;-60
2021/04/07 04:58:38;;;;;;;5.43;4.60;;;;;;;;;;5055096;28;20414;-60
2021/04/07 05:01:09;;;;;;;7.60;4.73;;;;;;;;;;5087770;28;20273;-61
2021/04/07 05:03:35;;;;;;;6.23;4.67;;;;;;;;;;5052761;28;20427;-61
2021/04/07 05:06:01;;;;;;;5.13;4.60;;;;;;;;;;5053673;28;20742;-60
2021/04/07 05:08:27;;;;;;;7.40;5.23;;;;;;;;;;5069026;28;20183;-60
2021/04/07 05:10:53;;;;;;;5.87;4.90;;;;;;;;;;5079563;28;20453;-62
2021/04/07 05:13:19;;;;;;;8.60;6.20;;;;;;;;;;5071583;28;20906;-60
2021/04/07 05:15:46;;;;;;;10.27;6.83;;;;;;;;;;5089237;28;20508;-60
2021/04/07 05:18:13;;;;;;;6.77;5.50;;;;;;;;;;5080984;28;20173;-60
2021/04/07 05:20:39;;;;;;;6.93;6.23;;;;;;;;;;5083815;28;20511;-61
2021/04/07 05:23:05;;;;;;;8.43;5.83;;;;;;;;;;5070430;28;20425;-60
2021/04/07 05:25:32;;;;;;;7.50;5.77;;;;;;;;;;5070575;28;20904;-61
2021/04/07 05:27:58;;;;;;;7.33;5.90;;;;;;;;;;5051233;28;20422;-60
2021/04/07 05:30:24;;;;;;;6.33;5.33;;;;;;;;;;5076201;28;20525;-61
2021/04/07 05:32:50;;;;;;;10.20;6.47;;;;;;;;;;5051849;28;20414;-60
2021/04/07 05:35:16;;;;;;;7.40;5.97;;;;;;;;;;5069017;28;20806;-61
2021/04/07 05:37:42;;;;;;;7.37;5.77;;;;;;;;;;5090720;28;21687;-61
2021/04/07 05:40:08;;;;;;;6.23;5.17;;;;;;;;;;5089569;28;20448;-61
2021/04/07 05:42:34;;;;;;;5.83;5.30;;;;;;;;;;5079261;28;20434;-61
2021/04/07 05:45:00;;;;;;;6.50;5.60;;;;;;;;;;5089361;28;20474;-61
2021/04/07 05:47:26;;;;;;;6.17;5.57;;;;;;;;;;5085403;28;20422;-61
2021/04/07 05:49:52;;;;;;;5.70;5.17;;;;;;;;;;5065794;28;20207;-61
2021/04/07 05:52:18;;;;;;;6.47;5.50;;;;;;;;;;5086805;28;20421;-61
2021/04/07 05:54:44;;;;;;;7.17;5.40;;;;;;;;;;5085022;28;20213;-62
2021/04/07 05:57:10;;;;;;;6.17;5.57;;;;;;;;;;5074105;28;20263;-61
2021/04/07 05:59:36;;;;;;;6.10;5.40;;;;;;;;;;5092323;28;20175;-61
2021/04/07 06:02:05;;;;;;;6.13;5.00;;;;;;;;;;5078779;28;20793;-61
2021/04/07 06:04:31;;;;;;;7.13;5.10;;;;;;;;;;5081109;28;20430;-61
2021/04/07 06:06:57;;;;;;;5.80;5.10;;;;;;;;;;5080529;28;20422;-61
2021/04/07 06:09:23;;;;;;;8.03;5.47;;;;;;;;;;5074223;28;21007;-63
2021/04/07 06:11:49;;;;;;;5.97;4.80;;;;;;;;;;5081013;28;20422;-61
2021/04/07 06:14:17;;;;;;;5.83;5.33;;;;;;;;;;5091640;28;20233;-61
2021/04/07 06:16:43;;;;;;;5.27;4.70;;;;;;;;;;5067021;28;20453;-62
2021/04/07 06:19:09;;;;;;;5.90;4.73;;;;;;;;;;5068607;28;20479;-62
2021/04/07 06:21:35;;;;;;;6.17;5.10;;;;;;;;;;5092571;28;20402;-62
2021/04/07 06:24:01;;;;;;;5.27;4.73;;;;;;;;;;5073390;28;20414;-62
2021/04/07 06:26:27;;;;;;;6.63;5.50;;;;;;;;;;5071272;28;20440;-62
2021/04/07 06:28:53;;;;;;;6.10;5.20;;;;;;;;;;5070626;28;20461;-62
2021/04/07 06:31:19;;;;;;;5.93;5.37;;;;;;;;;;5091258;28;20450;-62
2021/04/07 06:33:45;;;;;;;5.20;4.70;;;;;;;;;;5085550;28;21136;-62
2021/04/07 06:36:11;;;;;;;6.20;5.37;;;;;;;;;;5092107;28;20513;-62
2021/04/07 06:38:38;;;;;;;5.83;4.53;;;;;;;;;;5091553;28;20267;-62
2021/04/07 06:41:05;;;;;;;5.60;5.10;;;;;;;;;;5087966;28;20415;-63
2021/04/07 06:43:32;;;;;;;6.10;5.17;;;;;;;;;;5057943;28;20928;-62
2021/04/07 06:45:59;;;;;;;6.03;4.50;;;;;;;;;;5089745;28;20433;-62
2021/04/07 06:48:25;;;;;;;5.63;4.77;;;;;;;;;;5086856;28;20777;-65
2021/04/07 06:50:53;;;;;;;5.87;4.83;;;;;;;;;;5083053;28;20462;-62
2021/04/07 06:53:19;;;;;;;6.07;5.40;;;;;;;;;;5077618;28;20854;-62
2021/04/07 06:55:46;;;;;;;5.47;4.87;;;;;;;;;;5086916;28;20418;-63
2021/04/07 06:58:12;;;;;;;7.30;4.50;;;;;;;;;;5079904;28;20414;-62
2021/04/07 07:00:39;;;;;;;5.13;4.00;;;;;;;;;;5061556;28;20426;-62
2021/04/07 07:03:07;;;;;;;6.20;4.23;;;;;;;;;;5087784;28;20456;-63
2021/04/07 07:05:34;;;;;;;4.97;3.80;;;;;;;;;;5086797;28;20442;-64
2021/04/07 07:08:01;;;;;;;6.03;3.93;;;;;;;;;;5062507;28;20410;-62
2021/04/07 07:10:37;;;;;;;6.50;3.87;;;;;;;;;;5082764;28;20457;-61
2021/04/07 07:13:04;;;;;;;5.07;3.40;;;;;;;;;;5080269;28;20536;-63
2021/04/07 07:15:30;;;;;;;6.03;3.30;;;;;;;;;;5085337;28;20414;-62
2021/04/07 07:17:56;;;;;;;6.00;3.30;;;;;;;;;;5082137;28;20865;-61
2021/04/07 07:20:26;;;;;;;3.23;2.93;;;;;;;;;;5064120;28;20419;-61
2021/04/07 07:22:52;;;;;;;3.03;2.77;;;;;;;;;;5090715;28;20398;-61
2021/04/07 07:25:18;;;;;;;3.43;3.13;;;;;;;;;;5085943;28;20493;-62
2021/04/07 07:27:44;;;;;;;3.93;2.90;;;;;;;;;;5091485;28;20423;-61
2021/04/07 07:30:12;;;;;;;3.77;2.80;;;;;;;;;;5085494;28;20891;-64
2021/04/07 07:32:39;;;;;;;3.43;3.00;;;;;;;;;;5083485;28;20952;-62
2021/04/07 07:35:11;;;;;;;4.13;3.17;;;;;;;;;;5087971;28;20418;-61
2021/04/07 07:37:38;;;;;;;2.87;2.50;;;;;;;;;;5089755;28;20430;-61
2021/04/07 07:40:05;;;;;;;3.10;2.87;;;;;;;;;;5081264;28;20757;-62
2021/04/07 07:42:31;;;;;;;2.93;2.53;;;;;;;;;;5065154;28;20426;-64
2021/04/07 07:44:57;;;;;;;3.33;2.67;;;;;;;;;;5091199;28;20410;-62
2021/04/07 07:47:32;;;;;;;3.10;2.40;;;;;;;;;;5085189;28;20406;-61
2021/04/07 07:49:58;;;;;;;3.23;2.63;;;;;;;;;;5090496;28;20548;-61
2021/04/07 07:52:29;;;;;;;3.10;2.53;;;;;;;;;;5057516;28;20423;-61
2021/04/07 07:54:55;;;;;;;2.37;2.17;;;;;;;;;;5066513;28;20972;-64
2021/04/07 07:57:21;;;;;;;2.10;1.90;;;;;;;;;;5086083;28;20410;-61
2021/04/07 07:59:47;;;;;;;2.70;2.00;;;;;;;;;;5083201;28;20420;-62
2021/04/07 08:02:18;;;;;;;3.13;1.87;;;;;;;;;;5090269;28;20420;-62
2021/04/07 08:04:45;;;;;;;2.57;1.80;;;;;;;;;;5086148;28;20423;-64
2021/04/07 08:07:13;;;;;;;2.40;2.13;;;;;;;;;;5063216;28;20426;-63
2021/04/07 08:09:39;;;;;;;2.60;1.87;;;;;;;;;;5062905;28;20465;-62
2021/04/07 08:12:05;;;;;;;2.00;1.80;;;;;;;;;;5071756;28;20422;-62
2021/04/07 08:14:31;;;;;;;3.37;1.80;;;;;;;;;;5083606;28;20505;-65
2021/04/07 08:16:58;;;;;;;2.43;1.80;;;;;;;;;;5065716;28;20929;-62
2021/04/07 08:19:24;;;;;;;2.13;1.60;;;;;;;;;;5087112;28;20959;-63
2021/04/07 08:21:53;;;;;;;1.83;1.73;;;;;;;;;;5082006;28;20433;-61
2021/04/07 08:24:19;;;;;;;1.90;1.70;;;;;;;;;;5086927;28;20576;-62
2021/04/07 08:26:46;;;;;;;2.23;1.60;;;;;;;;;;5088022;28;20406;-62
2021/04/07 08:29:12;;;;;;;1.60;1.50;;;;;;;;;;5084484;28;20961;-65
2021/04/07 08:31:39;;;;;;;2.23;1.80;;;;;;;;;;5064850;28;20426;-62
2021/04/07 08:34:06;;;;;;;2.10;1.47;;;;;;;;;;5081568;28;20422;-60
2021/04/07 08:36:32;;;;;;;2.20;2.00;;;;;;;;;;5090052;28;20406;-61
2021/04/07 08:39:00;;;;;;;2.90;2.20;;;;;;;;;;5080476;28;20891;-62
2021/04/07 08:41:27;;;;;;;3.47;2.27;;;;;;;;;;5080110;28;20555;-61
2021/04/07 08:43:53;;;;;;;2.20;2.00;;;;;;;;;;5080328;28;20822;-61
2021/04/07 08:46:23;;;;;;;2.47;2.20;;;;;;;;;;5085594;28;20904;-62
2021/04/07 08:48:49;;;;;;;3.50;2.83;;;;;;;;;;5088729;28;20432;-61
2021/04/07 08:51:18;;;;;;;3.47;2.93;;;;;;;;;;5089653;28;20453;-62
2021/04/07 08:53:45;;;;;;;4.03;2.97;;;;;;;;;;5070977;28;20433;-61
2021/04/07 08:56:12;;;;;;;3.47;2.87;;;;;;;;;;5089205;28;20471;-61
2021/04/07 08:59:01;;;;;;;3.77;3.00;;;;;;;;;;5088713;28;20413;-61
2021/04/07 09:01:31;;;;;;;3.70;3.30;;;;;;;;;;5069771;28;20438;-62
2021/04/07 09:04:11;;;;;;;3.87;3.53;;;;;;;;;;5080905;28;20421;-61
2021/04/07 09:06:41;;;;;;;4.70;3.50;;;;;;;;;;5078861;28;20421;-64
2021/04/07 09:09:08;;;;;;;6.57;3.77;;;;;;;;;;5070231;28;20517;-62
2021/04/07 09:11:34;;;;;;;5.40;3.70;;;;;;;;;;5086448;28;20448;-61
2021/04/07 09:14:04;;;;;;;4.23;3.47;;;;;;;;;;5074748;28;20414;-61
2021/04/07 09:16:40;;;;;;;3.83;3.40;;;;;;;;;;5074037;28;20536;-61
2021/04/07 09:19:30;;;;;;;4.20;3.50;;;;;;;;;;5092684;28;20418;-61
2021/04/07 09:22:06;;;;;;;4.27;3.10;;;;;;;;;;5088205;28;20442;-62
2021/04/07 09:24:40;;;;;;;4.97;3.67;;;;;;;;;;5084472;28;20912;-61
2021/04/07 09:27:08;;;;;;;3.93;3.53;;;;;;;;;;5092431;28;20405;-61
2021/04/07 09:29:38;;;;;;;6.13;4.00;;;;;;;;;;5066057;28;20466;-61
2021/04/07 09:32:14;;;;;;;4.53;3.63;;;;;;;;;;5071920;28;20417;-61
2021/04/07 09:34:41;;;;;;;4.63;3.77;;;;;;;;;;5082263;28;20896;-62
2021/04/07 09:37:08;;;;;;;6.03;4.23;;;;;;;;;;5090402;28;20424;-61
2021/04/07 09:39:34;;;;;;;3.90;3.30;;;;;;;;;;5072971;28;20425;-61
2021/04/07 09:42:00;;;;;;;5.27;4.03;;;;;;;;;;5074930;28;20426;-61
2021/04/07 09:44:26;;;;;;;5.13;3.73;;;;;;;;;;5067252;28;20783;-62
2021/04/07 09:46:55;;;;;;;5.07;3.70;;;;;;;;;;5089366;28;20465;-63
2021/04/07 09:49:23;;;;;;;6.03;4.40;;;;;;;;;;5090534;28;20980;-61
2021/04/07 09:51:50;;;;;;;5.60;4.40;;;;;;;;;;5087018;28;20418;-61
2021/04/07 09:54:16;;;;;;;5.33;4.20;;;;;;;;;;5073428;28;20501;-61
2021/04/07 09:56:46;;;;;;;6.07;4.50;;;;;;;;;;5088501;28;20448;-61
2021/04/07 09:59:12;;;;;;;5.43;4.00;;;;;;;;;;5083819;28;20924;-62
2021/04/07 10:01:38;;;;;;;5.30;4.23;;;;;;;;;;5066265;28;20435;-62
2021/04/07 10:04:04;;;;;;;4.73;3.80;;;;;;;;;;5090387;28;20445;-61
2021/04/07 10:06:31;;;;;;;5.77;4.50;;;;;;;;;;5069322;28;20509;-61
2021/04/07 10:09:11;;;;;;;4.90;3.97;;;;;;;;;;5090135;28;20478;-61
2021/04/07 10:11:38;;;;;;;5.80;3.97;;;;;;;;;;5073471;28;20424;-62
2021/04/07 10:14:05;;;;;;;6.43;4.17;;;;;;;;;;5074248;28;20426;-62
2021/04/07 10:16:40;;;;;;;4.37;3.43;;;;;;;;;;5074079;28;20418;-61
2021/04/07 10:19:07;;;;;;;4.57;3.57;;;;;;;;;;5056541;28;20951;-62
2021/04/07 10:21:34;;;;;;;5.17;3.30;;;;;;;;;;5089003;28;20422;-62
2021/04/07 10:24:00;;;;;;;5.23;3.37;;;;;;;;;;5071107;28;20426;-62
2021/04/07 10:26:26;;;;;;;4.80;3.20;;;;;;;;;;5089879;28;20422;-65
2021/04/07 10:28:59;;;;;;;5.03;2.87;;;;;;;;;;5089850;28;20925;-63
2021/04/07 10:31:26;;;;;;;4.83;3.10;;;;;;;;;;5090119;28;20409;-62
2021/04/07 10:34:11;;;;;;;3.43;2.97;;;;;;;;;;5089835;28;20449;-62
2021/04/07 10:36:37;;;;;;;3.13;2.63;;;;;;;;;;5088306;28;20491;-62
2021/04/07 10:39:20;;;;;;;4.73;2.93;;;;;;;;;;5070798;28;20410;-62
2021/04/07 10:41:50;;;;;;;8.03;2.73;;;;;;;;;;5089715;28;20394;-62
2021/04/07 10:44:26;;;;;;;3.33;2.60;;;;;;;;;;5071680;28;20418;-61
2021/04/07 10:46:53;;;;;;;3.87;2.53;;;;;;;;;;5068029;28;20425;-63
2021/04/07 10:49:19;;;;;;;4.50;2.03;;;;;;;;;;5088189;28;20501;-62
2021/04/07 10:51:46;;;;;;;3.27;1.87;;;;;;;;;;5067528;28;20421;-63
2021/04/07 10:54:12;;;;;;;4.07;1.73;;;;;;;;;;5086306;28;20422;-62
2021/04/07 10:56:38;;;;;;;3.97;1.60;;;;;;;;;;5077122;28;20434;-63
2021/04/07 10:59:12;;;;;;;3.57;1.90;;;;;;;;;;5082664;28;20457;-62
2021/04/07 11:01:39;;;;;;;3.40;2.20;;;;;;;;;;5084021;28;20413;-63
2021/04/07 11:04:15;;;;;;;5.20;1.90;;;;;;;;;;5065216;28;20755;-62
2021/04/07 11:06:41;;;;;;;2.53;1.60;;;;;;;;;;5071855;28;20504;-62
2021/04/07 11:09:08;;;;;;;4.40;1.80;;;;;;;;;;5090524;28;20414;-62
2021/04/07 11:11:35;;;;;;;2.50;1.67;;;;;;;;;;5099642;28;20425;-62
2021/04/07 11:14:01;;;;;;;5.83;2.00;;;;;;;;;;5074426;28;20763;-62
2021/04/07 11:16:31;;;;;;;2.80;1.80;;;;;;;;;;5090463;28;20496;-63
2021/04/07 11:18:58;;;;;;;2.63;1.90;;;;;;;;;;5068073;28;20422;-63
2021/04/07 11:21:24;;;;;;;5.13;2.50;;;;;;;;;;5093759;28;20478;-65
2021/04/07 11:23:50;;;;;;;4.10;2.10;;;;;;;;;;5088806;28;20433;-62
2021/04/07 11:26:16;;;;;;;3.73;1.90;;;;;;;;;;5089386;28;20414;-62
2021/04/07 11:28:42;;;;;;;3.03;1.73;;;;;;;;;;5087359;28;20602;-61
2021/04/07 11:31:20;;;;;;;4.43;2.43;;;;;;;;;;5073403;28;20453;-62
2021/04/07 11:33:57;;;;;;;6.10;2.63;;;;;;;;;;5072337;28;20412;-63
2021/04/07 11:36:30;;;;;;;3.53;1.70;;;;;;;;;;5073032;28;20490;-61
2021/04/07 11:41:52;;;;;;;2.43;2.17;;;;;;;;;;5091205;28;20446;-62
2021/04/07 11:46:44;;;;;;;3.33;2.27;;;;;;;;;;5091239;28;20424;-62
2021/04/07 11:49:11;;;;;;;4.70;2.17;;;;;;;;;;5090466;28;20535;-62
2021/04/07 11:51:39;;;;;;;4.93;2.23;;;;;;;;;;5091341;28;20497;-62
2021/04/07 11:54:08;;;;;;;3.47;1.60;;;;;;;;;;5090399;28;20414;-62
2021/04/07 11:56:34;;;;;;;4.50;2.10;;;;;;;;;;5090279;28;20891;-63
2021/04/07 11:59:00;;;;;;;2.63;1.53;;;;;;;;;;5089814;28;20588;-62
2021/04/07 12:01:27;;;;;;;5.73;1.87;;;;;;;;;;5072020;28;20489;-64
2021/04/07 12:03:54;;;;;;;4.30;1.73;;;;;;;;;;5071176;28;20421;-63
2021/04/07 12:06:20;;;;;;;3.43;1.63;;;;;;;;;;5090378;28;20417;-62
2021/04/07 12:08:46;;;;;;;4.90;1.50;;;;;;;;;;5089517;28;20418;-62
2021/04/07 12:11:13;;;;;;;5.27;1.80;;;;;;;;;;5089549;28;20207;-62
2021/04/07 12:13:39;;;;;;;2.90;1.30;;;;;;;;;;5089279;28;20872;-62
2021/04/07 12:16:05;;;;;;;3.43;1.50;;;;;;;;;;5090109;28;20402;-62
2021/04/07 12:18:32;;;;;;;4.63;2.17;;;;;;;;;;5089647;28;20413;-63
2021/04/07 12:20:58;;;;;;;4.97;1.40;;;;;;;;;;5071371;28;20417;-62
2021/04/07 12:23:24;;;;;;;2.33;1.43;;;;;;;;;;5071159;28;20483;-64
2021/04/07 12:25:50;;;;;;;3.23;1.50;;;;;;;;;;5083954;28;20426;-62
2021/04/07 12:28:16;;;;;;;3.63;1.17;;;;;;;;;;5084236;28;20426;-63
2021/04/07 12:30:51;;;;;;;31.07;5.23;;;;;;;;;;5085508;28;20447;-61
2021/04/07 12:33:19;;;;;;;12.00;3.57;;;;;;;;;;5089674;28;20429;-61
2021/04/07 12:36:04;;;;;;;208.97;20.33;;;;;;;;;;5060136;28;20446;-61
2021/04/07 12:38:32;;;;;;;205.17;22.27;;;;;;;;;;5072350;28;20889;-62
2021/04/07 12:41:05;;;;;;;347.77;27.17;;;;;;;;;;5084228;28;20424;-64
2021/04/07 12:43:31;;;;;;;194.80;21.00;;;;;;;;;;5089982;28;20952;-61
2021/04/07 12:45:57;;;;;;;262.30;27.87;;;;;;;;;;5091474;28;20449;-61
2021/04/07 12:48:23;;;;;;;162.97;26.57;;;;;;;;;;5075887;28;20406;-61
2021/04/07 12:50:49;;;;;;;196.67;23.33;;;;;;;;;;5093573;28;20450;-61
2021/04/07 12:53:15;;;;;;;193.30;18.90;;;;;;;;;;5093206;28;20489;-61
2021/04/07 12:55:41;;;;;;;127.33;14.33;;;;;;;;;;5074507;28;20432;-61
2021/04/07 12:58:09;;;;;;;84.13;11.77;;;;;;;;;;5093978;28;20168;-59
2021/04/07 13:00:35;;;;;;;62.83;7.43;;;;;;;;;;5091618;28;20453;-62
2021/04/07 13:03:01;;;;;;;53.63;10.57;;;;;;;;;;5094510;28;20183;-62
2021/04/07 13:05:27;;;;;;;43.17;8.70;;;;;;;;;;5078462;28;20472;-61
2021/04/07 13:07:53;;;;;;;36.07;8.73;;;;;;;;;;5056382;28;20544;-61
2021/04/07 13:10:21;;;;;;;46.23;10.47;;;;;;;;;;5080733;28;20279;-61
2021/04/07 13:12:47;;;;;;;26.83;7.33;;;;;;;;;;5094306;28;20618;-60
2021/04/07 13:15:14;;;;;;;14.13;3.93;;;;;;;;;;5074031;28;20425;-61
2021/04/07 13:17:40;;;;;;;18.27;4.73;;;;;;;;;;5063150;28;20526;-61
2021/04/07 13:20:09;;;;;;;20.50;5.70;;;;;;;;;;5088236;28;20638;-64
2021/04/07 13:22:35;;;;;;;11.07;4.30;;;;;;;;;;5094406;28;20514;-64
2021/04/07 13:25:01;;;;;;;16.07;4.63;;;;;;;;;;5093382;28;20183;-61
2021/04/07 13:27:27;;;;;;;18.13;4.40;;;;;;;;;;5093968;28;20413;-60
2021/04/07 13:29:53;;;;;;;17.40;4.27;;;;;;;;;;5075093;28;20227;-61
2021/04/07 13:32:24;;;;;;;12.07;4.37;;;;;;;;;;5075923;28;20584;-62
2021/04/07 13:42:52;;;;;;;17.67;4.77;;;;;;;;;;5093818;28;20183;-61
2021/04/07 13:45:19;;;;;;;21.57;4.67;;;;;;;;;;5074795;28;20164;-60
2021/04/07 13:47:46;;;;;;;16.73;3.77;;;;;;;;;;5068003;28;20180;-62
2021/04/07 13:50:14;;;;;;;23.67;4.90;;;;;;;;;;5083671;28;20203;-61
2021/04/07 13:52:40;;;;;;;34.87;4.93;;;;;;;;;;5075045;28;20619;-61
2021/04/07 13:55:06;;;;;;;21.17;4.53;;;;;;;;;;5092789;28;20240;-61
2021/04/07 13:57:32;;;;;;;20.07;4.00;;;;;;;;;;5074302;28;20206;-61
2021/04/07 13:59:59;;;;;;;20.47;5.00;;;;;;;;;;5092534;28;20713;-59
2021/04/07 14:02:28;;;;;;;27.60;4.63;;;;;;;;;;5093552;28;20181;-59
2021/04/07 14:04:54;;;;;;;13.30;2.73;;;;;;;;;;5090664;28;20588;-59
2021/04/07 14:07:20;;;;;;;14.83;3.13;;;;;;;;;;5092256;28;20255;-59
2021/04/07 14:09:48;;;;;;;11.93;2.40;;;;;;;;;;5065534;28;20200;-60
2021/04/07 14:12:16;;;;;;;9.53;1.97;;;;;;;;;;5092273;28;20172;-60
2021/04/07 14:14:42;;;;;;;8.77;2.10;;;;;;;;;;5074236;28;20176;-60
2021/04/07 14:17:08;;;;;;;5.27;2.23;;;;;;;;;;5092053;28;20178;-60
2021/04/07 14:19:34;;;;;;;5.70;1.97;;;;;;;;;;5081861;28;20188;-61
2021/04/07 14:22:00;;;;;;;6.40;1.87;;;;;;;;;;5091309;28;20658;-60
2021/04/07 14:24:27;;;;;;;5.97;2.10;;;;;;;;;;5092484;28;20619;-60
2021/04/07 14:26:53;;;;;;;11.63;3.43;;;;;;;;;;5091923;28;20563;-60
2021/04/07 14:29:19;;;;;;;15.93;3.40;;;;;;;;;;5090866;28;20223;-60
2021/04/07 14:31:47;;;;;;;9.97;3.13;;;;;;;;;;5092435;28;20215;-60
2021/04/07 14:34:14;;;;;;;5.40;1.80;;;;;;;;;;5092235;28;20720;-59
2021/04/07 14:36:40;;;;;;;9.63;1.90;;;;;;;;;;5091706;28;20426;-60
2021/04/07 14:39:06;;;;;;;7.17;1.57;;;;;;;;;;5074372;28;20634;-62
2021/04/07 14:41:34;;;;;;;6.33;1.70;;;;;;;;;;5091351;28;20215;-61
2021/04/07 14:44:00;;;;;;;4.37;1.27;;;;;;;;;;5092147;28;20254;-60
2021/04/07 14:46:27;;;;;;;19.03;2.50;;;;;;;;;;5074501;28;20665;-62
2021/04/07 14:48:53;;;;;;;9.10;2.53;;;;;;;;;;5073972;28;20216;-60
2021/04/07 14:51:26;;;;;;;20.13;4.83;;;;;;;;;;5090651;28;20207;-59
2021/04/07 14:56:52;;;;;;;44.70;6.18;;;;;;;;;;5037232;28;20500;-62